sensor_id;sensor_type;location;lat;lon;timestamp;P1;durP1;ratioP1;P2;durP2;ratioP2
37655;SDS011;23498;50.958;3.124;2023-02-01T00:01:40;16.63;;;4.53;;
37655;SDS011;23498;50.958;3.124;2023-02-01T00:04:06;17.35;;;4.60;;
37655;SDS011;23498;50.958;3.124;2023-02-01T00:06:32;16.88;;;4.75;;
37655;SDS011;23498;50.958;3.124;2023-02-01T00:08:58;21.10;;;5.30;;
37655;SDS011;23498;50.958;3.124;2023-02-01T00:11:24;15.57;;;4.50;;
37655;SDS011;23498;50.958;3.124;2023-02-01T00:13:50;14.75;;;4.45;;
37655;SDS011;23498;50.958;3.124;2023-02-01T00:16:17;16.33;;;4.75;;
37655;SDS011;23498;50.958;3.124;2023-02-01T00:18:44;16.98;;;5.00;;
37655;SDS011;23498;50.958;3.124;2023-02-01T00:21:11;16.92;;;5.50;;
37655;SDS011;23498;50.958;3.124;2023-02-01T00:23:37;16.75;;;5.43;;
37655;SDS011;23498;50.958;3.124;2023-02-01T00:26:04;15.57;;;4.82;;
37655;SDS011;23498;50.958;3.124;2023-02-01T00:28:30;25.50;;;5.78;;
37655;SDS011;23498;50.958;3.124;2023-02-01T00:30:57;17.08;;;5.30;;
37655;SDS011;23498;50.958;3.124;2023-02-01T00:33:23;13.88;;;4.47;;
37655;SDS011;23498;50.958;3.124;2023-02-01T00:35:49;15.02;;;5.03;;
37655;SDS011;23498;50.958;3.124;2023-02-01T00:38:15;18.52;;;4.90;;
37655;SDS011;23498;50.958;3.124;2023-02-01T00:40:41;16.52;;;4.50;;
37655;SDS011;23498;50.958;3.124;2023-02-01T00:43:07;17.75;;;5.13;;
37655;SDS011;23498;50.958;3.124;2023-02-01T00:45:33;16.98;;;4.63;;
37655;SDS011;23498;50.958;3.124;2023-02-01T00:47:59;21.02;;;4.68;;
37655;SDS011;23498;50.958;3.124;2023-02-01T00:50:25;14.43;;;4.50;;
37655;SDS011;23498;50.958;3.124;2023-02-01T00:52:51;18.10;;;4.15;;
37655;SDS011;23498;50.958;3.124;2023-02-01T00:55:17;12.70;;;4.47;;
37655;SDS011;23498;50.958;3.124;2023-02-01T00:57:43;20.70;;;4.50;;
37655;SDS011;23498;50.958;3.124;2023-02-01T01:00:09;21.48;;;4.75;;
37655;SDS011;23498;50.958;3.124;2023-02-01T01:02:35;16.65;;;4.60;;
37655;SDS011;23498;50.958;3.124;2023-02-01T01:05:01;16.63;;;4.50;;
37655;SDS011;23498;50.958;3.124;2023-02-01T01:07:27;16.27;;;4.57;;
37655;SDS011;23498;50.958;3.124;2023-02-01T01:09:53;20.05;;;5.13;;
37655;SDS011;23498;50.958;3.124;2023-02-01T01:12:19;19.08;;;4.90;;
37655;SDS011;23498;50.958;3.124;2023-02-01T01:14:45;19.58;;;4.40;;
37655;SDS011;23498;50.958;3.124;2023-02-01T01:17:11;17.30;;;4.75;;
37655;SDS011;23498;50.958;3.124;2023-02-01T01:19:37;19.73;;;4.90;;
37655;SDS011;23498;50.958;3.124;2023-02-01T01:22:03;15.73;;;4.88;;
37655;SDS011;23498;50.958;3.124;2023-02-01T01:24:29;15.80;;;3.70;;
37655;SDS011;23498;50.958;3.124;2023-02-01T01:26:55;22.80;;;4.18;;
37655;SDS011;23498;50.958;3.124;2023-02-01T01:29:21;20.02;;;4.82;;
37655;SDS011;23498;50.958;3.124;2023-02-01T01:31:47;17.33;;;4.30;;
37655;SDS011;23498;50.958;3.124;2023-02-01T01:34:13;15.02;;;4.40;;
37655;SDS011;23498;50.958;3.124;2023-02-01T01:36:39;15.18;;;3.60;;
37655;SDS011;23498;50.958;3.124;2023-02-01T01:39:05;15.13;;;4.85;;
37655;SDS011;23498;50.958;3.124;2023-02-01T01:41:32;15.65;;;4.15;;
37655;SDS011;23498;50.958;3.124;2023-02-01T01:46:25;18.73;;;4.38;;
37655;SDS011;23498;50.958;3.124;2023-02-01T01:49:37;21.25;;;4.63;;
37655;SDS011;23498;50.958;3.124;2023-02-01T01:51:40;18.45;;;4.30;;
37655;SDS011;23498;50.958;3.124;2023-02-01T01:56:37;18.75;;;4.43;;
37655;SDS011;23498;50.958;3.124;2023-02-01T01:59:03;11.82;;;3.20;;
37655;SDS011;23498;50.958;3.124;2023-02-01T02:01:30;18.67;;;3.80;;
37655;SDS011;23498;50.958;3.124;2023-02-01T02:03:56;16.98;;;4.25;;
37655;SDS011;23498;50.958;3.124;2023-02-01T02:06:40;13.32;;;3.38;;
37655;SDS011;23498;50.958;3.124;2023-02-01T02:09:10;13.80;;;3.70;;
37655;SDS011;23498;50.958;3.124;2023-02-01T02:11:36;15.80;;;4.22;;
37655;SDS011;23498;50.958;3.124;2023-02-01T02:14:02;19.70;;;4.03;;
37655;SDS011;23498;50.958;3.124;2023-02-01T02:16:39;15.88;;;3.97;;
37655;SDS011;23498;50.958;3.124;2023-02-01T02:34:47;21.48;;;4.32;;
37655;SDS011;23498;50.958;3.124;2023-02-01T02:39:56;19.17;;;3.80;;
37655;SDS011;23498;50.958;3.124;2023-02-01T02:42:27;23.13;;;3.97;;
37655;SDS011;23498;50.958;3.124;2023-02-01T02:45:18;19.77;;;3.75;;
37655;SDS011;23498;50.958;3.124;2023-02-01T02:53:19;20.02;;;4.47;;
37655;SDS011;23498;50.958;3.124;2023-02-01T02:56:07;21.00;;;4.07;;
37655;SDS011;23498;50.958;3.124;2023-02-01T02:58:53;18.90;;;3.80;;
37655;SDS011;23498;50.958;3.124;2023-02-01T03:01:38;15.52;;;3.80;;
37655;SDS011;23498;50.958;3.124;2023-02-01T03:04:24;19.13;;;3.97;;
37655;SDS011;23498;50.958;3.124;2023-02-01T03:06:51;16.77;;;3.78;;
37655;SDS011;23498;50.958;3.124;2023-02-01T03:09:22;13.35;;;3.33;;
37655;SDS011;23498;50.958;3.124;2023-02-01T03:11:49;11.93;;;3.17;;
37655;SDS011;23498;50.958;3.124;2023-02-01T03:14:37;17.02;;;3.53;;
37655;SDS011;23498;50.958;3.124;2023-02-01T03:17:09;15.70;;;3.40;;
37655;SDS011;23498;50.958;3.124;2023-02-01T03:19:37;17.80;;;3.88;;
37655;SDS011;23498;50.958;3.124;2023-02-01T03:22:09;19.73;;;3.50;;
37655;SDS011;23498;50.958;3.124;2023-02-01T03:24:50;12.75;;;3.58;;
37655;SDS011;23498;50.958;3.124;2023-02-01T03:27:22;17.02;;;5.38;;
37655;SDS011;23498;50.958;3.124;2023-02-01T03:32:30;13.65;;;3.00;;
37655;SDS011;23498;50.958;3.124;2023-02-01T03:35:16;11.13;;;2.55;;
37655;SDS011;23498;50.958;3.124;2023-02-01T03:37:43;16.73;;;3.47;;
37655;SDS011;23498;50.958;3.124;2023-02-01T03:40:10;9.60;;;3.25;;
37655;SDS011;23498;50.958;3.124;2023-02-01T03:42:38;16.40;;;3.22;;
37655;SDS011;23498;50.958;3.124;2023-02-01T03:47:33;24.50;;;4.10;;
37655;SDS011;23498;50.958;3.124;2023-02-01T03:50:03;16.27;;;3.45;;
37655;SDS011;23498;50.958;3.124;2023-02-01T03:52:42;14.95;;;3.13;;
37655;SDS011;23498;50.958;3.124;2023-02-01T03:55:09;14.73;;;4.18;;
37655;SDS011;23498;50.958;3.124;2023-02-01T03:57:39;21.05;;;3.83;;
37655;SDS011;23498;50.958;3.124;2023-02-01T04:00:20;16.98;;;3.50;;
37655;SDS011;23498;50.958;3.124;2023-02-01T04:02:47;19.33;;;4.30;;
37655;SDS011;23498;50.958;3.124;2023-02-01T04:05:13;15.18;;;3.40;;
37655;SDS011;23498;50.958;3.124;2023-02-01T04:07:39;15.88;;;3.22;;
37655;SDS011;23498;50.958;3.124;2023-02-01T04:10:05;15.25;;;3.10;;
37655;SDS011;23498;50.958;3.124;2023-02-01T04:12:31;15.70;;;3.58;;
37655;SDS011;23498;50.958;3.124;2023-02-01T04:14:57;13.75;;;3.10;;
37655;SDS011;23498;50.958;3.124;2023-02-01T04:17:23;16.85;;;3.30;;
37655;SDS011;23498;50.958;3.124;2023-02-01T04:19:49;19.52;;;3.95;;
37655;SDS011;23498;50.958;3.124;2023-02-01T04:22:15;18.65;;;3.60;;
37655;SDS011;23498;50.958;3.124;2023-02-01T04:24:41;19.25;;;3.90;;
37655;SDS011;23498;50.958;3.124;2023-02-01T04:27:07;18.85;;;4.43;;
37655;SDS011;23498;50.958;3.124;2023-02-01T04:29:33;20.55;;;3.40;;
37655;SDS011;23498;50.958;3.124;2023-02-01T04:31:59;24.48;;;3.95;;
37655;SDS011;23498;50.958;3.124;2023-02-01T04:34:25;15.07;;;4.30;;
37655;SDS011;23498;50.958;3.124;2023-02-01T04:36:51;23.25;;;3.55;;
37655;SDS011;23498;50.958;3.124;2023-02-01T04:39:17;17.52;;;3.53;;
37655;SDS011;23498;50.958;3.124;2023-02-01T04:41:43;17.27;;;4.20;;
37655;SDS011;23498;50.958;3.124;2023-02-01T04:44:13;18.77;;;3.47;;
37655;SDS011;23498;50.958;3.124;2023-02-01T04:46:40;16.50;;;3.90;;
37655;SDS011;23498;50.958;3.124;2023-02-01T04:49:06;13.27;;;2.83;;
37655;SDS011;23498;50.958;3.124;2023-02-01T04:51:31;16.85;;;3.45;;
37655;SDS011;23498;50.958;3.124;2023-02-01T04:53:57;18.38;;;3.72;;
37655;SDS011;23498;50.958;3.124;2023-02-01T04:56:23;15.45;;;3.38;;
37655;SDS011;23498;50.958;3.124;2023-02-01T04:58:49;23.48;;;3.58;;
37655;SDS011;23498;50.958;3.124;2023-02-01T05:01:15;13.35;;;3.30;;
37655;SDS011;23498;50.958;3.124;2023-02-01T05:03:41;15.35;;;3.80;;
37655;SDS011;23498;50.958;3.124;2023-02-01T05:06:07;13.93;;;3.22;;
37655;SDS011;23498;50.958;3.124;2023-02-01T05:08:33;17.70;;;4.00;;
37655;SDS011;23498;50.958;3.124;2023-02-01T05:10:59;19.17;;;4.47;;
37655;SDS011;23498;50.958;3.124;2023-02-01T05:13:27;18.92;;;3.75;;
37655;SDS011;23498;50.958;3.124;2023-02-01T05:16:13;18.20;;;4.03;;
37655;SDS011;23498;50.958;3.124;2023-02-01T05:18:39;17.42;;;4.32;;
37655;SDS011;23498;50.958;3.124;2023-02-01T05:21:05;21.00;;;4.22;;
37655;SDS011;23498;50.958;3.124;2023-02-01T05:23:31;13.82;;;3.70;;
37655;SDS011;23498;50.958;3.124;2023-02-01T05:26:00;19.70;;;4.78;;
37655;SDS011;23498;50.958;3.124;2023-02-01T05:28:27;16.75;;;3.67;;
37655;SDS011;23498;50.958;3.124;2023-02-01T05:30:53;19.98;;;3.78;;
37655;SDS011;23498;50.958;3.124;2023-02-01T05:33:20;19.92;;;3.78;;
37655;SDS011;23498;50.958;3.124;2023-02-01T05:35:46;16.52;;;3.42;;
37655;SDS011;23498;50.958;3.124;2023-02-01T05:38:12;17.27;;;3.47;;
37655;SDS011;23498;50.958;3.124;2023-02-01T05:40:38;22.30;;;4.50;;
37655;SDS011;23498;50.958;3.124;2023-02-01T05:43:03;19.30;;;3.90;;
37655;SDS011;23498;50.958;3.124;2023-02-01T05:45:29;21.27;;;5.22;;
37655;SDS011;23498;50.958;3.124;2023-02-01T05:47:55;22.05;;;4.47;;
37655;SDS011;23498;50.958;3.124;2023-02-01T05:50:21;18.95;;;3.78;;
37655;SDS011;23498;50.958;3.124;2023-02-01T05:52:47;16.33;;;3.90;;
37655;SDS011;23498;50.958;3.124;2023-02-01T05:55:13;14.32;;;3.33;;
37655;SDS011;23498;50.958;3.124;2023-02-01T05:57:39;19.30;;;4.28;;
37655;SDS011;23498;50.958;3.124;2023-02-01T06:00:05;18.50;;;4.72;;
37655;SDS011;23498;50.958;3.124;2023-02-01T06:02:32;27.80;;;4.50;;
37655;SDS011;23498;50.958;3.124;2023-02-01T06:04:58;22.45;;;4.32;;
37655;SDS011;23498;50.958;3.124;2023-02-01T06:07:23;23.42;;;4.30;;
37655;SDS011;23498;50.958;3.124;2023-02-01T06:09:49;20.13;;;3.95;;
37655;SDS011;23498;50.958;3.124;2023-02-01T06:12:15;19.63;;;3.70;;
37655;SDS011;23498;50.958;3.124;2023-02-01T06:14:41;16.73;;;4.18;;
37655;SDS011;23498;50.958;3.124;2023-02-01T06:17:08;14.20;;;3.60;;
37655;SDS011;23498;50.958;3.124;2023-02-01T06:19:34;20.33;;;3.72;;
37655;SDS011;23498;50.958;3.124;2023-02-01T06:22:00;26.33;;;4.78;;
37655;SDS011;23498;50.958;3.124;2023-02-01T06:24:26;19.80;;;4.72;;
37655;SDS011;23498;50.958;3.124;2023-02-01T06:26:52;17.30;;;3.70;;
37655;SDS011;23498;50.958;3.124;2023-02-01T06:29:18;20.50;;;3.55;;
37655;SDS011;23498;50.958;3.124;2023-02-01T06:31:44;19.70;;;3.55;;
37655;SDS011;23498;50.958;3.124;2023-02-01T06:34:10;16.92;;;3.63;;
37655;SDS011;23498;50.958;3.124;2023-02-01T06:36:36;17.02;;;3.45;;
37655;SDS011;23498;50.958;3.124;2023-02-01T06:39:02;19.65;;;4.60;;
37655;SDS011;23498;50.958;3.124;2023-02-01T06:41:29;15.52;;;3.97;;
37655;SDS011;23498;50.958;3.124;2023-02-01T06:43:55;15.13;;;3.67;;
37655;SDS011;23498;50.958;3.124;2023-02-01T06:46:21;22.80;;;4.72;;
37655;SDS011;23498;50.958;3.124;2023-02-01T06:48:47;19.25;;;3.83;;
37655;SDS011;23498;50.958;3.124;2023-02-01T06:51:21;19.60;;;3.50;;
37655;SDS011;23498;50.958;3.124;2023-02-01T06:53:47;18.10;;;3.80;;
37655;SDS011;23498;50.958;3.124;2023-02-01T06:56:13;15.73;;;3.00;;
37655;SDS011;23498;50.958;3.124;2023-02-01T06:58:39;18.00;;;5.03;;
37655;SDS011;23498;50.958;3.124;2023-02-01T07:01:05;14.93;;;3.47;;
37655;SDS011;23498;50.958;3.124;2023-02-01T07:03:32;20.35;;;3.75;;
37655;SDS011;23498;50.958;3.124;2023-02-01T07:05:58;19.67;;;4.47;;
37655;SDS011;23498;50.958;3.124;2023-02-01T07:08:24;11.70;;;2.88;;
37655;SDS011;23498;50.958;3.124;2023-02-01T07:10:50;18.25;;;3.80;;
37655;SDS011;23498;50.958;3.124;2023-02-01T07:13:16;17.98;;;3.80;;
37655;SDS011;23498;50.958;3.124;2023-02-01T07:15:42;16.63;;;3.95;;
37655;SDS011;23498;50.958;3.124;2023-02-01T07:18:08;17.83;;;3.60;;
37655;SDS011;23498;50.958;3.124;2023-02-01T07:20:34;22.83;;;4.60;;
37655;SDS011;23498;50.958;3.124;2023-02-01T07:23:00;16.98;;;3.47;;
37655;SDS011;23498;50.958;3.124;2023-02-01T07:25:26;20.98;;;4.25;;
37655;SDS011;23498;50.958;3.124;2023-02-01T07:27:52;22.33;;;4.22;;
37655;SDS011;23498;50.958;3.124;2023-02-01T07:30:18;16.55;;;4.43;;
37655;SDS011;23498;50.958;3.124;2023-02-01T07:32:44;9.07;;;2.63;;
37655;SDS011;23498;50.958;3.124;2023-02-01T07:35:12;16.60;;;3.20;;
37655;SDS011;23498;50.958;3.124;2023-02-01T07:37:39;18.00;;;3.30;;
37655;SDS011;23498;50.958;3.124;2023-02-01T07:40:05;12.63;;;3.25;;
37655;SDS011;23498;50.958;3.124;2023-02-01T07:42:31;16.20;;;3.42;;
37655;SDS011;23498;50.958;3.124;2023-02-01T07:44:57;16.85;;;3.70;;
37655;SDS011;23498;50.958;3.124;2023-02-01T07:47:23;9.52;;;2.67;;
37655;SDS011;23498;50.958;3.124;2023-02-01T07:49:51;15.70;;;3.28;;
37655;SDS011;23498;50.958;3.124;2023-02-01T07:52:17;17.25;;;3.40;;
37655;SDS011;23498;50.958;3.124;2023-02-01T07:54:43;18.98;;;3.85;;
37655;SDS011;23498;50.958;3.124;2023-02-01T07:57:09;13.07;;;3.92;;
37655;SDS011;23498;50.958;3.124;2023-02-01T07:59:36;16.40;;;3.00;;
37655;SDS011;23498;50.958;3.124;2023-02-01T08:02:25;19.02;;;4.05;;
37655;SDS011;23498;50.958;3.124;2023-02-01T08:04:51;18.67;;;4.05;;
37655;SDS011;23498;50.958;3.124;2023-02-01T08:07:17;14.00;;;3.28;;
37655;SDS011;23498;50.958;3.124;2023-02-01T08:09:43;21.92;;;3.50;;
37655;SDS011;23498;50.958;3.124;2023-02-01T08:12:09;18.25;;;4.15;;
37655;SDS011;23498;50.958;3.124;2023-02-01T08:14:35;16.80;;;3.03;;
37655;SDS011;23498;50.958;3.124;2023-02-01T08:17:01;14.65;;;2.70;;
37655;SDS011;23498;50.958;3.124;2023-02-01T08:19:27;20.73;;;3.28;;
37655;SDS011;23498;50.958;3.124;2023-02-01T08:21:53;18.77;;;2.55;;
37655;SDS011;23498;50.958;3.124;2023-02-01T08:24:19;14.18;;;3.30;;
37655;SDS011;23498;50.958;3.124;2023-02-01T08:26:46;17.13;;;3.65;;
37655;SDS011;23498;50.958;3.124;2023-02-01T08:29:12;14.05;;;2.67;;
37655;SDS011;23498;50.958;3.124;2023-02-01T08:31:38;18.85;;;3.35;;
37655;SDS011;23498;50.958;3.124;2023-02-01T08:34:08;16.30;;;3.03;;
37655;SDS011;23498;50.958;3.124;2023-02-01T08:36:34;15.10;;;3.03;;
37655;SDS011;23498;50.958;3.124;2023-02-01T08:39:03;12.65;;;2.47;;
37655;SDS011;23498;50.958;3.124;2023-02-01T08:41:33;13.98;;;3.08;;
37655;SDS011;23498;50.958;3.124;2023-02-01T08:50:12;14.20;;;3.40;;
37655;SDS011;23498;50.958;3.124;2023-02-01T08:52:39;11.88;;;2.58;;
37655;SDS011;23498;50.958;3.124;2023-02-01T08:55:05;14.68;;;3.03;;
37655;SDS011;23498;50.958;3.124;2023-02-01T08:57:32;18.63;;;3.53;;
37655;SDS011;23498;50.958;3.124;2023-02-01T09:00:16;21.45;;;4.25;;
37655;SDS011;23498;50.958;3.124;2023-02-01T09:02:58;15.82;;;2.88;;
37655;SDS011;23498;50.958;3.124;2023-02-01T09:05:47;10.98;;;2.30;;
37655;SDS011;23498;50.958;3.124;2023-02-01T09:19:56;11.27;;;2.38;;
37655;SDS011;23498;50.958;3.124;2023-02-01T09:22:22;19.25;;;3.88;;
37655;SDS011;23498;50.958;3.124;2023-02-01T09:24:48;10.98;;;2.97;;
37655;SDS011;23498;50.958;3.124;2023-02-01T09:27:14;16.77;;;3.25;;
37655;SDS011;23498;50.958;3.124;2023-02-01T09:29:40;14.77;;;3.33;;
37655;SDS011;23498;50.958;3.124;2023-02-01T09:32:06;13.13;;;2.70;;
37655;SDS011;23498;50.958;3.124;2023-02-01T09:34:32;12.85;;;2.80;;
37655;SDS011;23498;50.958;3.124;2023-02-01T09:36:58;14.80;;;3.20;;
37655;SDS011;23498;50.958;3.124;2023-02-01T09:39:25;17.52;;;2.80;;
37655;SDS011;23498;50.958;3.124;2023-02-01T09:44:27;13.52;;;3.42;;
37655;SDS011;23498;50.958;3.124;2023-02-01T09:46:57;12.80;;;2.80;;
37655;SDS011;23498;50.958;3.124;2023-02-01T09:49:27;10.77;;;2.50;;
37655;SDS011;23498;50.958;3.124;2023-02-01T09:51:53;13.25;;;2.50;;
37655;SDS011;23498;50.958;3.124;2023-02-01T09:54:25;9.30;;;2.10;;
37655;SDS011;23498;50.958;3.124;2023-02-01T09:56:53;13.20;;;3.13;;
37655;SDS011;23498;50.958;3.124;2023-02-01T09:59:23;16.63;;;2.58;;
37655;SDS011;23498;50.958;3.124;2023-02-01T10:01:52;9.23;;;2.45;;
37655;SDS011;23498;50.958;3.124;2023-02-01T10:04:18;11.98;;;2.40;;
37655;SDS011;23498;50.958;3.124;2023-02-01T10:06:54;18.60;;;3.08;;
37655;SDS011;23498;50.958;3.124;2023-02-01T10:11:59;12.50;;;3.25;;
37655;SDS011;23498;50.958;3.124;2023-02-01T10:19:48;7.35;;;1.83;;
37655;SDS011;23498;50.958;3.124;2023-02-01T10:22:26;12.77;;;2.38;;
37655;SDS011;23498;50.958;3.124;2023-02-01T10:25:20;7.63;;;1.50;;
37655;SDS011;23498;50.958;3.124;2023-02-01T10:27:44;11.98;;;2.63;;
37655;SDS011;23498;50.958;3.124;2023-02-01T10:30:18;11.65;;;2.47;;
37655;SDS011;23498;50.958;3.124;2023-02-01T10:32:45;12.20;;;3.03;;
37655;SDS011;23498;50.958;3.124;2023-02-01T10:35:15;14.65;;;2.95;;
37655;SDS011;23498;50.958;3.124;2023-02-01T10:37:42;9.07;;;1.95;;
37655;SDS011;23498;50.958;3.124;2023-02-01T10:42:36;12.48;;;2.55;;
37655;SDS011;23498;50.958;3.124;2023-02-01T10:45:02;15.10;;;2.63;;
37655;SDS011;23498;50.958;3.124;2023-02-01T10:47:29;13.20;;;2.20;;
37655;SDS011;23498;50.958;3.124;2023-02-01T10:52:36;6.95;;;2.00;;
37655;SDS011;23498;50.958;3.124;2023-02-01T10:57:55;6.47;;;1.73;;
37655;SDS011;23498;50.958;3.124;2023-02-01T11:00:21;9.90;;;2.20;;
37655;SDS011;23498;50.958;3.124;2023-02-01T11:02:47;10.18;;;1.90;;
37655;SDS011;23498;50.958;3.124;2023-02-01T11:05:15;8.32;;;2.30;;
37655;SDS011;23498;50.958;3.124;2023-02-01T11:07:48;7.53;;;2.10;;
37655;SDS011;23498;50.958;3.124;2023-02-01T11:12:52;5.63;;;1.50;;
37655;SDS011;23498;50.958;3.124;2023-02-01T11:15:22;13.38;;;2.42;;
37655;SDS011;23498;50.958;3.124;2023-02-01T11:17:52;11.32;;;2.47;;
37655;SDS011;23498;50.958;3.124;2023-02-01T11:20:40;10.10;;;2.33;;
37655;SDS011;23498;50.958;3.124;2023-02-01T11:23:12;8.80;;;1.73;;
37655;SDS011;23498;50.958;3.124;2023-02-01T11:25:46;9.88;;;1.88;;
37655;SDS011;23498;50.958;3.124;2023-02-01T11:28:15;6.93;;;1.58;;
37655;SDS011;23498;50.958;3.124;2023-02-01T11:30:42;12.82;;;2.35;;
37655;SDS011;23498;50.958;3.124;2023-02-01T11:33:12;12.65;;;2.20;;
37655;SDS011;23498;50.958;3.124;2023-02-01T11:35:39;5.97;;;1.45;;
37655;SDS011;23498;50.958;3.124;2023-02-01T11:38:18;8.45;;;1.83;;
37655;SDS011;23498;50.958;3.124;2023-02-01T11:40:45;9.02;;;1.77;;
37655;SDS011;23498;50.958;3.124;2023-02-01T11:43:27;9.73;;;2.47;;
37655;SDS011;23498;50.958;3.124;2023-02-01T11:45:58;11.45;;;2.10;;
37655;SDS011;23498;50.958;3.124;2023-02-01T11:48:25;8.85;;;2.33;;
37655;SDS011;23498;50.958;3.124;2023-02-01T11:53:39;10.00;;;1.83;;
37655;SDS011;23498;50.958;3.124;2023-02-01T12:11:46;6.10;;;1.38;;
37655;SDS011;23498;50.958;3.124;2023-02-01T12:21:46;7.88;;;1.70;;
37655;SDS011;23498;50.958;3.124;2023-02-01T12:26:56;12.32;;;1.92;;
37655;SDS011;23498;50.958;3.124;2023-02-01T12:32:10;10.55;;;2.13;;
37655;SDS011;23498;50.958;3.124;2023-02-01T12:37:19;5.85;;;1.20;;
37655;SDS011;23498;50.958;3.124;2023-02-01T12:42:38;6.95;;;1.60;;
37655;SDS011;23498;50.958;3.124;2023-02-01T12:45:20;6.90;;;2.08;;
37655;SDS011;23498;50.958;3.124;2023-02-01T12:47:52;10.65;;;1.63;;
37655;SDS011;23498;50.958;3.124;2023-02-01T12:50:20;7.70;;;2.08;;
37655;SDS011;23498;50.958;3.124;2023-02-01T12:52:51;8.45;;;2.17;;
37655;SDS011;23498;50.958;3.124;2023-02-01T12:55:34;10.88;;;1.60;;
37655;SDS011;23498;50.958;3.124;2023-02-01T13:00:48;6.85;;;1.65;;
37655;SDS011;23498;50.958;3.124;2023-02-01T13:03:29;9.00;;;1.40;;
37655;SDS011;23498;50.958;3.124;2023-02-01T13:06:02;8.98;;;2.00;;
37655;SDS011;23498;50.958;3.124;2023-02-01T13:08:50;9.38;;;1.60;;
37655;SDS011;23498;50.958;3.124;2023-02-01T13:11:24;9.52;;;1.90;;
37655;SDS011;23498;50.958;3.124;2023-02-01T13:18:49;8.68;;;1.75;;
37655;SDS011;23498;50.958;3.124;2023-02-01T13:21:24;6.20;;;1.48;;
37655;SDS011;23498;50.958;3.124;2023-02-01T13:23:58;12.45;;;2.38;;
37655;SDS011;23498;50.958;3.124;2023-02-01T13:26:24;8.95;;;1.70;;
37655;SDS011;23498;50.958;3.124;2023-02-01T13:28:56;9.60;;;2.17;;
37655;SDS011;23498;50.958;3.124;2023-02-01T13:36:40;8.65;;;2.28;;
37655;SDS011;23498;50.958;3.124;2023-02-01T13:41:42;11.93;;;2.28;;
37655;SDS011;23498;50.958;3.124;2023-02-01T13:44:20;11.48;;;1.67;;
37655;SDS011;23498;50.958;3.124;2023-02-01T13:46:49;9.10;;;1.90;;
37655;SDS011;23498;50.958;3.124;2023-02-01T13:49:21;9.98;;;2.65;;
37655;SDS011;23498;50.958;3.124;2023-02-01T13:51:50;11.82;;;2.38;;
37655;SDS011;23498;50.958;3.124;2023-02-01T13:54:33;9.82;;;2.17;;
37655;SDS011;23498;50.958;3.124;2023-02-01T13:56:59;8.60;;;1.77;;
37655;SDS011;23498;50.958;3.124;2023-02-01T13:59:36;9.07;;;1.90;;
37655;SDS011;23498;50.958;3.124;2023-02-01T14:04:49;12.30;;;1.90;;
37655;SDS011;23498;50.958;3.124;2023-02-01T14:07:19;13.25;;;2.50;;
37655;SDS011;23498;50.958;3.124;2023-02-01T14:09:46;17.10;;;2.67;;
37655;SDS011;23498;50.958;3.124;2023-02-01T14:17:44;11.25;;;2.38;;
37655;SDS011;23498;50.958;3.124;2023-02-01T14:23:01;12.05;;;2.17;;
37655;SDS011;23498;50.958;3.124;2023-02-01T14:25:34;8.30;;;1.52;;
37655;SDS011;23498;50.958;3.124;2023-02-01T14:28:00;7.53;;;1.88;;
37655;SDS011;23498;50.958;3.124;2023-02-01T14:30:26;8.80;;;2.13;;
37655;SDS011;23498;50.958;3.124;2023-02-01T14:32:52;14.80;;;2.35;;
37655;SDS011;23498;50.958;3.124;2023-02-01T14:35:19;13.80;;;2.22;;
37655;SDS011;23498;50.958;3.124;2023-02-01T14:37:46;10.93;;;2.28;;
37655;SDS011;23498;50.958;3.124;2023-02-01T14:40:16;8.13;;;2.05;;
37655;SDS011;23498;50.958;3.124;2023-02-01T14:42:46;11.95;;;2.47;;
37655;SDS011;23498;50.958;3.124;2023-02-01T15:06:46;15.90;;;3.15;;
37655;SDS011;23498;50.958;3.124;2023-02-01T15:14:28;5.80;;;2.03;;
37655;SDS011;23498;50.958;3.124;2023-02-01T15:16:57;13.95;;;2.65;;
37655;SDS011;23498;50.958;3.124;2023-02-01T15:19:24;9.23;;;2.33;;
37655;SDS011;23498;50.958;3.124;2023-02-01T15:21:51;20.42;;;3.28;;
37655;SDS011;23498;50.958;3.124;2023-02-01T15:24:22;8.35;;;2.10;;
37655;SDS011;23498;50.958;3.124;2023-02-01T15:26:48;19.38;;;2.63;;
37655;SDS011;23498;50.958;3.124;2023-02-01T15:29:14;12.85;;;2.70;;
37655;SDS011;23498;50.958;3.124;2023-02-01T15:31:42;12.27;;;2.80;;
37655;SDS011;23498;50.958;3.124;2023-02-01T15:34:09;14.35;;;2.70;;
37655;SDS011;23498;50.958;3.124;2023-02-01T15:36:36;11.82;;;2.83;;
37655;SDS011;23498;50.958;3.124;2023-02-01T15:39:13;13.82;;;2.70;;
37655;SDS011;23498;50.958;3.124;2023-02-01T15:41:43;8.80;;;1.98;;
37655;SDS011;23498;50.958;3.124;2023-02-01T15:44:33;15.80;;;2.90;;
37655;SDS011;23498;50.958;3.124;2023-02-01T15:46:58;14.45;;;3.60;;
37655;SDS011;23498;50.958;3.124;2023-02-01T15:49:26;15.85;;;3.15;;
37655;SDS011;23498;50.958;3.124;2023-02-01T15:51:52;16.75;;;3.30;;
37655;SDS011;23498;50.958;3.124;2023-02-01T15:54:20;15.60;;;3.38;;
37655;SDS011;23498;50.958;3.124;2023-02-01T15:56:49;13.30;;;2.80;;
37655;SDS011;23498;50.958;3.124;2023-02-01T15:59:20;21.40;;;3.50;;
37655;SDS011;23498;50.958;3.124;2023-02-01T16:01:47;16.88;;;3.65;;
37655;SDS011;23498;50.958;3.124;2023-02-01T16:04:16;11.43;;;2.97;;
37655;SDS011;23498;50.958;3.124;2023-02-01T16:07:02;22.20;;;3.53;;
37655;SDS011;23498;50.958;3.124;2023-02-01T16:09:39;14.73;;;3.03;;
37655;SDS011;23498;50.958;3.124;2023-02-01T16:15:07;17.15;;;3.45;;
37655;SDS011;23498;50.958;3.124;2023-02-01T16:17:33;15.13;;;3.13;;
37655;SDS011;23498;50.958;3.124;2023-02-01T16:19:59;17.70;;;3.90;;
37655;SDS011;23498;50.958;3.124;2023-02-01T16:22:25;10.30;;;2.67;;
37655;SDS011;23498;50.958;3.124;2023-02-01T16:24:51;20.70;;;3.55;;
37655;SDS011;23498;50.958;3.124;2023-02-01T16:27:17;18.00;;;3.83;;
37655;SDS011;23498;50.958;3.124;2023-02-01T16:29:43;21.20;;;4.53;;
37655;SDS011;23498;50.958;3.124;2023-02-01T16:32:16;15.60;;;3.60;;
37655;SDS011;23498;50.958;3.124;2023-02-01T16:34:43;19.38;;;4.30;;
37655;SDS011;23498;50.958;3.124;2023-02-01T16:37:11;19.88;;;3.58;;
37655;SDS011;23498;50.958;3.124;2023-02-01T16:39:38;18.65;;;3.50;;
37655;SDS011;23498;50.958;3.124;2023-02-01T16:42:13;11.52;;;3.00;;
37655;SDS011;23498;50.958;3.124;2023-02-01T16:44:40;20.30;;;4.72;;
37655;SDS011;23498;50.958;3.124;2023-02-01T16:47:11;23.42;;;4.10;;
37655;SDS011;23498;50.958;3.124;2023-02-01T16:52:03;17.73;;;4.22;;
37655;SDS011;23498;50.958;3.124;2023-02-01T16:54:30;29.45;;;5.13;;
37655;SDS011;23498;50.958;3.124;2023-02-01T16:56:55;18.35;;;3.80;;
37655;SDS011;23498;50.958;3.124;2023-02-01T16:59:22;21.63;;;4.35;;
37655;SDS011;23498;50.958;3.124;2023-02-01T17:01:48;20.73;;;4.50;;
37655;SDS011;23498;50.958;3.124;2023-02-01T17:04:14;23.52;;;3.80;;
37655;SDS011;23498;50.958;3.124;2023-02-01T17:06:41;18.85;;;4.25;;
37655;SDS011;23498;50.958;3.124;2023-02-01T17:09:08;16.20;;;4.35;;
37655;SDS011;23498;50.958;3.124;2023-02-01T17:11:34;22.52;;;4.47;;
37655;SDS011;23498;50.958;3.124;2023-02-01T17:14:36;21.17;;;3.85;;
37655;SDS011;23498;50.958;3.124;2023-02-01T17:16:54;15.15;;;3.75;;
37655;SDS011;23498;50.958;3.124;2023-02-01T17:19:21;13.88;;;3.60;;
37655;SDS011;23498;50.958;3.124;2023-02-01T17:21:48;18.40;;;4.22;;
37655;SDS011;23498;50.958;3.124;2023-02-01T17:24:17;23.70;;;4.53;;
37655;SDS011;23498;50.958;3.124;2023-02-01T17:26:43;19.27;;;4.95;;
37655;SDS011;23498;50.958;3.124;2023-02-01T17:29:10;18.63;;;4.53;;
37655;SDS011;23498;50.958;3.124;2023-02-01T17:31:37;17.13;;;3.92;;
37655;SDS011;23498;50.958;3.124;2023-02-01T17:34:03;15.88;;;4.15;;